sensor_id;sensor_type;location;lat;lon;timestamp;pressure;altitude;pressure_sealevel;temperature;humidity
62680;BME280;68213;40.528;44.712;2023-06-05T00:00:15;80560.09;;;11.85;72.21
62680;BME280;68213;40.528;44.712;2023-06-05T00:01:16;80554.94;;;11.87;72.32
62680;BME280;68213;40.528;44.712;2023-06-05T00:02:17;80556.91;;;11.87;72.53
62680;BME280;68213;40.528;44.712;2023-06-05T00:03:18;80560.50;;;11.94;71.67
62680;BME280;68213;40.528;44.712;2023-06-05T00:04:19;80549.84;;;11.91;72.39
62680;BME280;68213;40.528;44.712;2023-06-05T00:05:21;80553.19;;;11.92;72.62
62680;BME280;68213;40.528;44.712;2023-06-05T00:06:21;80550.66;;;11.94;72.44
62680;BME280;68213;40.528;44.712;2023-06-05T00:07:22;80545.94;;;11.93;73.30
62680;BME280;68213;40.528;44.712;2023-06-05T00:08:23;80539.91;;;11.90;73.59
62680;BME280;68213;40.528;44.712;2023-06-05T00:09:23;80547.63;;;11.86;73.72
62680;BME280;68213;40.528;44.712;2023-06-05T00:10:24;80548.19;;;11.84;73.48
62680;BME280;68213;40.528;44.712;2023-06-05T00:11:25;80543.13;;;11.74;73.39
62680;BME280;68213;40.528;44.712;2023-06-05T00:12:25;80554.06;;;11.83;73.94
62680;BME280;68213;40.528;44.712;2023-06-05T00:13:26;80524.97;;;11.67;74.33
62680;BME280;68213;40.528;44.712;2023-06-05T00:14:27;80545.97;;;11.79;74.73
62680;BME280;68213;40.528;44.712;2023-06-05T00:15:28;80549.75;;;11.75;75.05
62680;BME280;68213;40.528;44.712;2023-06-05T00:16:31;80542.34;;;11.72;74.95
62680;BME280;68213;40.528;44.712;2023-06-05T00:17:32;80539.69;;;11.72;74.11
62680;BME280;68213;40.528;44.712;2023-06-05T00:18:32;80534.31;;;11.70;74.70
62680;BME280;68213;40.528;44.712;2023-06-05T00:19:33;80536.88;;;11.68;75.01
62680;BME280;68213;40.528;44.712;2023-06-05T00:20:34;80520.75;;;11.48;74.74
62680;BME280;68213;40.528;44.712;2023-06-05T00:21:35;80543.88;;;11.63;74.79
62680;BME280;68213;40.528;44.712;2023-06-05T00:22:37;80543.31;;;11.65;75.69
62680;BME280;68213;40.528;44.712;2023-06-05T00:23:39;80528.44;;;11.43;75.28
62680;BME280;68213;40.528;44.712;2023-06-05T00:24:39;80544.00;;;11.65;75.00
62680;BME280;68213;40.528;44.712;2023-06-05T00:25:40;80553.34;;;11.68;75.30
62680;BME280;68213;40.528;44.712;2023-06-05T00:26:41;80549.94;;;11.66;75.14
62680;BME280;68213;40.528;44.712;2023-06-05T00:27:41;80550.72;;;11.68;74.58
62680;BME280;68213;40.528;44.712;2023-06-05T00:28:42;80544.84;;;11.70;74.53
62680;BME280;68213;40.528;44.712;2023-06-05T00:29:43;80548.38;;;11.74;73.61
62680;BME280;68213;40.528;44.712;2023-06-05T00:30:43;80547.81;;;11.76;73.56
62680;BME280;68213;40.528;44.712;2023-06-05T00:31:44;80547.81;;;11.76;74.24
62680;BME280;68213;40.528;44.712;2023-06-05T00:32:46;80545.97;;;11.79;74.11
62680;BME280;68213;40.528;44.712;2023-06-05T00:33:48;80541.38;;;11.79;73.85
62680;BME280;68213;40.528;44.712;2023-06-05T00:34:49;80542.06;;;11.80;74.19
62680;BME280;68213;40.528;44.712;2023-06-05T00:35:50;80536.09;;;11.79;74.31
62680;BME280;68213;40.528;44.712;2023-06-05T00:36:51;80522.63;;;11.73;74.51
62680;BME280;68213;40.528;44.712;2023-06-05T00:37:52;80536.78;;;11.80;74.66
62680;BME280;68213;40.528;44.712;2023-06-05T00:38:53;80520.88;;;11.64;74.03
62680;BME280;68213;40.528;44.712;2023-06-05T00:39:54;80535.63;;;11.83;74.04
62680;BME280;68213;40.528;44.712;2023-06-05T00:40:54;80535.63;;;11.83;74.11
62680;BME280;68213;40.528;44.712;2023-06-05T00:41:55;80534.44;;;11.86;73.63
62680;BME280;68213;40.528;44.712;2023-06-05T00:42:56;80539.13;;;11.87;73.01
62680;BME280;68213;40.528;44.712;2023-06-05T00:43:56;80533.28;;;11.89;74.15
62680;BME280;68213;40.528;44.712;2023-06-05T00:44:57;80532.78;;;11.93;73.85
62680;BME280;68213;40.528;44.712;2023-06-05T00:46:00;80527.50;;;11.93;73.25
62680;BME280;68213;40.528;44.712;2023-06-05T00:47:03;80517.78;;;11.81;74.04
62680;BME280;68213;40.528;44.712;2023-06-05T00:48:05;80529.59;;;11.94;74.08
62680;BME280;68213;40.528;44.712;2023-06-05T00:49:07;80537.47;;;11.94;74.40
62680;BME280;68213;40.528;44.712;2023-06-05T00:50:11;80536.69;;;11.91;74.38
62680;BME280;68213;40.528;44.712;2023-06-05T00:51:14;80533.47;;;11.93;73.99
62680;BME280;68213;40.528;44.712;2023-06-05T00:52:19;80537.16;;;11.88;74.03
62680;BME280;68213;40.528;44.712;2023-06-05T00:53:20;80533.38;;;11.91;74.00
62680;BME280;68213;40.528;44.712;2023-06-05T00:54:22;80532.78;;;11.93;74.16
62680;BME280;68213;40.528;44.712;2023-06-05T00:55:22;80528.88;;;11.94;72.42
62680;BME280;68213;40.528;44.712;2023-06-05T00:56:23;80518.16;;;11.89;72.42
62680;BME280;68213;40.528;44.712;2023-06-05T00:57:26;80525.66;;;11.95;72.99
62680;BME280;68213;40.528;44.712;2023-06-05T00:58:28;80519.72;;;11.95;73.22
62680;BME280;68213;40.528;44.712;2023-06-05T00:59:31;80515.13;;;11.95;72.86
62680;BME280;68213;40.528;44.712;2023-06-05T01:00:35;80526.94;;;11.94;73.71
62680;BME280;68213;40.528;44.712;2023-06-05T01:01:36;80528.00;;;11.89;74.53
62680;BME280;68213;40.528;44.712;2023-06-05T01:02:41;80515.53;;;11.89;74.66
62680;BME280;68213;40.528;44.712;2023-06-05T01:03:41;80522.72;;;11.89;74.86
62680;BME280;68213;40.528;44.712;2023-06-05T01:04:45;80522.56;;;11.85;74.52
62680;BME280;68213;40.528;44.712;2023-06-05T01:05:47;80521.06;;;11.82;74.80
62680;BME280;68213;40.528;44.712;2023-06-05T01:06:48;80533.34;;;11.77;74.95
62680;BME280;68213;40.528;44.712;2023-06-05T01:07:51;80525.16;;;11.71;74.91
62680;BME280;68213;40.528;44.712;2023-06-05T01:08:52;80529.75;;;11.70;74.30
62680;BME280;68213;40.528;44.712;2023-06-05T01:09:56;80532.19;;;11.66;74.25
62680;BME280;68213;40.528;44.712;2023-06-05T01:10:59;80521.75;;;11.68;74.24
62680;BME280;68213;40.528;44.712;2023-06-05T01:13:28;80524.59;;;11.72;73.76
62680;BME280;68213;40.528;44.712;2023-06-05T01:14:35;80523.31;;;11.73;73.86
62680;BME280;68213;40.528;44.712;2023-06-05T01:15:38;80523.13;;;11.69;74.12
62680;BME280;68213;40.528;44.712;2023-06-05T01:16:39;80527.13;;;11.70;73.91
62680;BME280;68213;40.528;44.712;2023-06-05T01:17:41;80507.22;;;11.53;74.54
62680;BME280;68213;40.528;44.712;2023-06-05T01:18:42;80520.19;;;11.63;74.33
62680;BME280;68213;40.528;44.712;2023-06-05T01:19:46;80518.81;;;11.62;74.02
62680;BME280;68213;40.528;44.712;2023-06-05T01:20:50;80513.34;;;11.58;74.67
62680;BME280;68213;40.528;44.712;2023-06-05T01:21:51;80521.06;;;11.54;74.82
62680;BME280;68213;40.528;44.712;2023-06-05T01:22:52;80524.94;;;11.53;74.52
62680;BME280;68213;40.528;44.712;2023-06-05T01:23:53;80513.03;;;11.52;73.92
62680;BME280;68213;40.528;44.712;2023-06-05T01:24:53;80520.47;;;11.55;73.34
62680;BME280;68213;40.528;44.712;2023-06-05T01:25:57;80523.78;;;11.56;73.14
62680;BME280;68213;40.528;44.712;2023-06-05T01:27:08;80515.97;;;11.58;73.79
62680;BME280;68213;40.528;44.712;2023-06-05T01:28:17;80516.78;;;11.61;73.23
62680;BME280;68213;40.528;44.712;2023-06-05T01:29:24;80519.97;;;11.59;73.28
62680;BME280;68213;40.528;44.712;2023-06-05T01:31:29;80517.34;;;11.59;73.31
62680;BME280;68213;40.528;44.712;2023-06-05T01:32:56;80524.09;;;11.62;72.65
62680;BME280;68213;40.528;44.712;2023-06-05T01:34:08;80523.97;;;11.60;73.09
62680;BME280;68213;40.528;44.712;2023-06-05T01:35:13;80515.91;;;11.56;73.42
62680;BME280;68213;40.528;44.712;2023-06-05T01:36:18;80518.53;;;11.56;73.98
62680;BME280;68213;40.528;44.712;2023-06-05T01:37:19;80520.38;;;11.53;73.46
62680;BME280;68213;40.528;44.712;2023-06-05T01:38:25;80513.63;;;11.50;73.46
62680;BME280;68213;40.528;44.712;2023-06-05T01:39:26;80499.78;;;11.36;74.35
62680;BME280;68213;40.528;44.712;2023-06-05T01:40:29;80518.13;;;11.48;73.86
62680;BME280;68213;40.528;44.712;2023-06-05T01:41:33;80521.91;;;11.45;74.08
62680;BME280;68213;40.528;44.712;2023-06-05T01:42:36;80525.72;;;11.41;74.12
62680;BME280;68213;40.528;44.712;2023-06-05T01:43:37;80525.03;;;11.41;73.88
62680;BME280;68213;40.528;44.712;2023-06-05T01:44:39;80520.34;;;11.39;74.27
62680;BME280;68213;40.528;44.712;2023-06-05T01:45:41;80517.59;;;11.37;73.95
62680;BME280;68213;40.528;44.712;2023-06-05T01:46:43;80522.88;;;11.37;73.67
62680;BME280;68213;40.528;44.712;2023-06-05T01:47:44;80521.59;;;11.38;73.74
62680;BME280;68213;40.528;44.712;2023-06-05T01:48:48;80527.47;;;11.37;74.27
62680;BME280;68213;40.528;44.712;2023-06-05T01:49:51;80522.19;;;11.37;73.13
62680;BME280;68213;40.528;44.712;2023-06-05T01:50:55;80509.72;;;11.37;73.52
62680;BME280;68213;40.528;44.712;2023-06-05T01:51:58;80518.97;;;11.38;73.99
62680;BME280;68213;40.528;44.712;2023-06-05T01:52:59;80514.97;;;11.37;73.15
62680;BME280;68213;40.528;44.712;2023-06-05T01:54:01;80511.44;;;11.33;73.02
62680;BME280;68213;40.528;44.712;2023-06-05T01:55:02;80531.66;;;11.42;73.19
62680;BME280;68213;40.528;44.712;2023-06-05T01:56:04;80524.47;;;11.42;73.24
62680;BME280;68213;40.528;44.712;2023-06-05T01:57:07;80510.00;;;11.30;73.60
62680;BME280;68213;40.528;44.712;2023-06-05T01:58:07;80521.03;;;11.40;73.32
62680;BME280;68213;40.528;44.712;2023-06-05T01:59:08;80521.72;;;11.40;73.18
62680;BME280;68213;40.528;44.712;2023-06-05T02:00:10;80526.97;;;11.40;73.21
62680;BME280;68213;40.528;44.712;2023-06-05T02:01:14;80526.41;;;11.42;72.88
62680;BME280;68213;40.528;44.712;2023-06-05T02:02:16;80522.38;;;11.41;73.79
62680;BME280;68213;40.528;44.712;2023-06-05T02:03:20;80521.72;;;11.40;73.38
62680;BME280;68213;40.528;44.712;2023-06-05T02:04:21;80529.63;;;11.40;73.50
62680;BME280;68213;40.528;44.712;2023-06-05T02:05:22;80528.91;;;11.40;73.39
62680;BME280;68213;40.528;44.712;2023-06-05T02:06:22;80529.63;;;11.40;73.57
62680;BME280;68213;40.528;44.712;2023-06-05T02:07:25;80526.97;;;11.40;73.78
62680;BME280;68213;40.528;44.712;2023-06-05T02:08:26;80525.03;;;11.41;73.36
62680;BME280;68213;40.528;44.712;2023-06-05T02:09:29;80517.59;;;11.37;73.41
62680;BME280;68213;40.528;44.712;2023-06-05T02:10:32;80526.97;;;11.40;73.52
62680;BME280;68213;40.528;44.712;2023-06-05T02:11:36;80528.44;;;11.43;73.38
62680;BME280;68213;40.528;44.712;2023-06-05T02:12:37;80529.13;;;11.44;72.92
62680;BME280;68213;40.528;44.712;2023-06-05T02:13:39;80525.13;;;11.43;73.08
62680;BME280;68213;40.528;44.712;2023-06-05T02:14:40;80533.81;;;11.46;73.22
62680;BME280;68213;40.528;44.712;2023-06-05T02:15:45;80532.53;;;11.47;72.77
62680;BME280;68213;40.528;44.712;2023-06-05T02:16:46;80532.66;;;11.49;72.76
62680;BME280;68213;40.528;44.712;2023-06-05T02:17:51;80535.97;;;11.49;72.82
62680;BME280;68213;40.528;44.712;2023-06-05T02:18:53;80484.81;;;11.13;72.96
62680;BME280;68213;40.528;44.712;2023-06-05T02:19:57;80536.19;;;11.53;72.80
62680;BME280;68213;40.528;44.712;2023-06-05T02:20:58;80530.31;;;11.55;73.01
62680;BME280;68213;40.528;44.712;2023-06-05T02:22:01;80525.66;;;11.53;72.71
62680;BME280;68213;40.528;44.712;2023-06-05T02:23:03;80529.63;;;11.54;72.47
62680;BME280;68213;40.528;44.712;2023-06-05T02:24:05;80520.94;;;11.52;72.58
62680;BME280;68213;40.528;44.712;2023-06-05T02:25:07;80529.84;;;11.58;72.85
62680;BME280;68213;40.528;44.712;2023-06-05T02:26:08;80525.06;;;11.55;72.98
62680;BME280;68213;40.528;44.712;2023-06-05T02:27:09;80530.63;;;11.61;72.43
62680;BME280;68213;40.528;44.712;2023-06-05T02:28:10;80534.63;;;11.62;72.44
62680;BME280;68213;40.528;44.712;2023-06-05T02:29:11;80532.09;;;11.64;72.60
62680;BME280;68213;40.528;44.712;2023-06-05T02:30:12;80523.59;;;11.66;72.60
62680;BME280;68213;40.528;44.712;2023-06-05T02:31:13;80536.19;;;11.67;72.78
62680;BME280;68213;40.528;44.712;2023-06-05T02:32:17;80526.91;;;11.66;73.22
62680;BME280;68213;40.528;44.712;2023-06-05T02:33:18;80502.44;;;11.50;72.19
62680;BME280;68213;40.528;44.712;2023-06-05T02:34:19;80527.22;;;11.72;72.34
62680;BME280;68213;40.528;44.712;2023-06-05T02:35:20;80523.31;;;11.73;72.20
62680;BME280;68213;40.528;44.712;2023-06-05T02:36:24;80520.88;;;11.78;72.58
62680;BME280;68213;40.528;44.712;2023-06-05T02:37:25;80520.50;;;11.83;71.12
62680;BME280;68213;40.528;44.712;2023-06-05T02:38:27;80514.06;;;11.86;71.29
62680;BME280;68213;40.528;44.712;2023-06-05T02:39:30;80499.53;;;11.71;71.75
62680;BME280;68213;40.528;44.712;2023-06-05T02:40:35;80522.34;;;11.95;72.03
62680;BME280;68213;40.528;44.712;2023-06-05T02:41:36;80521.75;;;11.96;72.25
62680;BME280;68213;40.528;44.712;2023-06-05T02:42:37;80521.75;;;11.96;71.85
62680;BME280;68213;40.528;44.712;2023-06-05T02:43:37;80519.25;;;11.98;72.12
62680;BME280;68213;40.528;44.712;2023-06-05T02:44:38;80517.41;;;12.01;72.94
62680;BME280;68213;40.528;44.712;2023-06-05T02:45:39;80518.78;;;12.02;72.38
62680;BME280;68213;40.528;44.712;2023-06-05T02:46:40;80515.53;;;12.03;71.79
62680;BME280;68213;40.528;44.712;2023-06-05T02:47:43;80514.38;;;12.06;72.27
62680;BME280;68213;40.528;44.712;2023-06-05T02:48:43;80514.56;;;12.11;71.84
62680;BME280;68213;40.528;44.712;2023-06-05T02:49:44;80520.03;;;12.15;70.87
62680;BME280;68213;40.528;44.712;2023-06-05T02:50:45;80496.44;;;12.03;71.47
62680;BME280;68213;40.528;44.712;2023-06-05T02:51:48;80505.00;;;12.17;71.20
62680;BME280;68213;40.528;44.712;2023-06-05T02:52:48;80515.22;;;12.25;70.97
62680;BME280;68213;40.528;44.712;2023-06-05T02:53:50;80516.69;;;12.28;70.46
62680;BME280;68213;40.528;44.712;2023-06-05T02:54:51;80506.34;;;12.32;71.05
62680;BME280;68213;40.528;44.712;2023-06-05T02:55:52;80509.19;;;12.36;70.00
62680;BME280;68213;40.528;44.712;2023-06-05T02:56:54;80516.59;;;12.40;69.93
62680;BME280;68213;40.528;44.712;2023-06-05T02:57:58;80494.84;;;12.40;69.00
62680;BME280;68213;40.528;44.712;2023-06-05T02:58:59;80508.47;;;12.50;69.16
62680;BME280;68213;40.528;44.712;2023-06-05T03:00:02;80506.03;;;12.54;69.52
62680;BME280;68213;40.528;44.712;2023-06-05T03:01:08;80511.47;;;12.58;69.47
62680;BME280;68213;40.528;44.712;2023-06-05T03:02:09;80503.75;;;12.62;69.86
62680;BME280;68213;40.528;44.712;2023-06-05T03:03:10;80501.91;;;12.65;69.76
62680;BME280;68213;40.528;44.712;2023-06-05T03:04:11;80500.72;;;12.68;69.05
62680;BME280;68213;40.528;44.712;2023-06-05T03:05:14;80506.19;;;12.72;69.28
62680;BME280;68213;40.528;44.712;2023-06-05T03:06:14;80500.41;;;12.76;69.15
62680;BME280;68213;40.528;44.712;2023-06-05T03:07:17;80505.19;;;12.79;68.65
62680;BME280;68213;40.528;44.712;2023-06-05T03:08:18;80507.22;;;12.81;69.40
62680;BME280;68213;40.528;44.712;2023-06-05T03:09:18;80507.91;;;12.81;69.96
62680;BME280;68213;40.528;44.712;2023-06-05T03:10:20;80507.22;;;12.81;71.16
62680;BME280;68213;40.528;44.712;2023-06-05T03:11:21;80498.03;;;12.82;70.46
62680;BME280;68213;40.528;44.712;2023-06-05T03:12:25;80498.16;;;12.84;71.05
62680;BME280;68213;40.528;44.712;2023-06-05T03:13:31;80503.50;;;12.86;68.73
62680;BME280;68213;40.528;44.712;2023-06-05T03:14:32;80500.44;;;12.92;69.78
62680;BME280;68213;40.528;44.712;2023-06-05T03:15:33;80509.13;;;12.94;68.96
62680;BME280;68213;40.528;44.712;2023-06-05T03:16:35;80502.69;;;12.97;69.08
62680;BME280;68213;40.528;44.712;2023-06-05T03:17:42;80503.47;;;13.00;67.88
62680;BME280;68213;40.528;44.712;2023-06-05T03:18:43;80514.97;;;13.07;66.96
62680;BME280;68213;40.528;44.712;2023-06-05T03:19:43;80510.47;;;13.09;67.20
62680;BME280;68213;40.528;44.712;2023-06-05T03:20:44;80508.69;;;13.14;67.61
62680;BME280;68213;40.528;44.712;2023-06-05T03:21:45;80510.63;;;13.13;68.13
62680;BME280;68213;40.528;44.712;2023-06-05T03:22:47;80516.78;;;13.18;67.62
62680;BME280;68213;40.528;44.712;2023-06-05T03:23:48;80511.59;;;13.20;67.34
62680;BME280;68213;40.528;44.712;2023-06-05T03:24:49;80515.00;;;13.23;67.97
62680;BME280;68213;40.528;44.712;2023-06-05T03:25:50;80507.84;;;13.25;67.54
62680;BME280;68213;40.528;44.712;2023-06-05T03:26:51;80514.59;;;13.28;66.59
62680;BME280;68213;40.528;44.712;2023-06-05T03:27:52;80514.59;;;13.28;66.58
62680;BME280;68213;40.528;44.712;2023-06-05T03:28:52;80516.53;;;13.28;66.45
62680;BME280;68213;40.528;44.712;2023-06-05T03:29:56;80519.28;;;13.30;66.00
62680;BME280;68213;40.528;44.712;2023-06-05T03:30:59;80509.13;;;13.24;64.37
62680;BME280;68213;40.528;44.712;2023-06-05T03:32:00;80518.69;;;13.31;64.41
62680;BME280;68213;40.528;44.712;2023-06-05T03:33:00;80519.06;;;13.40;64.85
62680;BME280;68213;40.528;44.712;2023-06-05T03:34:01;80531.09;;;13.43;65.56
62680;BME280;68213;40.528;44.712;2023-06-05T03:35:04;80527.84;;;13.44;65.52
62680;BME280;68213;40.528;44.712;2023-06-05T03:36:05;80531.25;;;13.47;65.90
62680;BME280;68213;40.528;44.712;2023-06-05T03:37:07;80527.44;;;13.50;67.89
62680;BME280;68213;40.528;44.712;2023-06-05T03:38:08;80531.44;;;13.51;68.47
62680;BME280;68213;40.528;44.712;2023-06-05T03:39:10;80530.22;;;13.54;68.92
62680;BME280;68213;40.528;44.712;2023-06-05T03:40:12;80528.88;;;13.53;68.00
62680;BME280;68213;40.528;44.712;2023-06-05T03:41:13;80529.56;;;13.54;67.25
62680;BME280;68213;40.528;44.712;2023-06-05T03:42:13;80524.94;;;13.54;67.68
62680;BME280;68213;40.528;44.712;2023-06-05T03:43:14;80524.94;;;13.54;63.95
62680;BME280;68213;40.528;44.712;2023-06-05T03:44:15;80525.66;;;13.55;63.68
62680;BME280;68213;40.528;44.712;2023-06-05T03:45:16;80523.00;;;13.55;62.43
62680;BME280;68213;40.528;44.712;2023-06-05T03:46:17;80523.84;;;13.59;63.08
62680;BME280;68213;40.528;44.712;2023-06-05T03:47:21;80524.63;;;13.62;63.02
62680;BME280;68213;40.528;44.712;2023-06-05T03:48:22;80522.81;;;13.67;63.51
62680;BME280;68213;40.528;44.712;2023-06-05T03:49:22;80522.91;;;13.69;63.03
62680;BME280;68213;40.528;44.712;2023-06-05T03:50:23;80530.44;;;13.74;63.75
62680;BME280;68213;40.528;44.712;2023-06-05T03:51:25;80528.56;;;13.77;64.28
62680;BME280;68213;40.528;44.712;2023-06-05T03:52:31;80522.00;;;13.78;63.96
62680;BME280;68213;40.528;44.712;2023-06-05T03:53:35;80526.78;;;13.82;64.43
62680;BME280;68213;40.528;44.712;2023-06-05T03:54:40;80526.16;;;13.83;64.71
62680;BME280;68213;40.528;44.712;2023-06-05T03:55:41;80528.91;;;13.85;64.34
62680;BME280;68213;40.528;44.712;2023-06-05T03:56:41;80524.22;;;13.84;63.88
62680;BME280;68213;40.528;44.712;2023-06-05T03:57:49;80534.19;;;13.85;62.20
62680;BME280;68213;40.528;44.712;2023-06-05T03:58:53;80531.78;;;13.91;62.65
62680;BME280;68213;40.528;44.712;2023-06-05T03:59:53;80528.03;;;13.96;63.77
62680;BME280;68213;40.528;44.712;2023-06-05T04:00:54;80528.88;;;14.01;63.15
62680;BME280;68213;40.528;44.712;2023-06-05T04:01:56;80530.59;;;13.94;63.35
62680;BME280;68213;40.528;44.712;2023-06-05T04:02:57;80533.00;;;14.04;62.57
62680;BME280;68213;40.528;44.712;2023-06-05T04:03:59;80529.84;;;14.08;62.38
62680;BME280;68213;40.528;44.712;2023-06-05T04:05:00;80525.81;;;14.07;62.48
62680;BME280;68213;40.528;44.712;2023-06-05T04:06:01;80531.97;;;14.11;62.29
62680;BME280;68213;40.528;44.712;2023-06-05T04:07:02;80527.53;;;14.16;63.52
62680;BME280;68213;40.528;44.712;2023-06-05T04:08:03;80511.66;;;14.00;62.45
62680;BME280;68213;40.528;44.712;2023-06-05T04:09:04;80534.00;;;14.13;61.82
62680;BME280;68213;40.528;44.712;2023-06-05T04:10:14;80524.28;;;14.18;62.77
62680;BME280;68213;40.528;44.712;2023-06-05T04:11:15;80530.34;;;14.20;62.33
62680;BME280;68213;40.528;44.712;2023-06-05T04:12:16;80531.78;;;14.23;65.06
62680;BME280;68213;40.528;44.712;2023-06-05T04:13:17;80534.69;;;14.30;64.37
62680;BME280;68213;40.528;44.712;2023-06-05T04:14:18;80529.53;;;14.34;64.25
62680;BME280;68213;40.528;44.712;2023-06-05T04:15:18;80524.88;;;14.32;64.70
62680;BME280;68213;40.528;44.712;2023-06-05T04:16:19;80532.13;;;14.32;64.78
62680;BME280;68213;40.528;44.712;2023-06-05T04:17:20;80524.94;;;14.34;65.71
62680;BME280;68213;40.528;44.712;2023-06-05T04:18:20;80529.72;;;14.38;63.59
62680;BME280;68213;40.528;44.712;2023-06-05T04:19:21;80524.63;;;14.26;60.81
62680;BME280;68213;40.528;44.712;2023-06-05T04:20:22;80525.81;;;14.39;60.23
62680;BME280;68213;40.528;44.712;2023-06-05T04:21:23;80526.56;;;14.41;59.63
62680;BME280;68213;40.528;44.712;2023-06-05T04:22:23;80528.69;;;14.45;60.39
62680;BME280;68213;40.528;44.712;2023-06-05T04:23:24;80524.84;;;14.48;60.05
62680;BME280;68213;40.528;44.712;2023-06-05T04:24:25;80527.66;;;14.52;60.61
62680;BME280;68213;40.528;44.712;2023-06-05T04:25:28;80529.34;;;14.62;62.51
62680;BME280;68213;40.528;44.712;2023-06-05T04:26:29;80525.41;;;14.63;62.13
62680;BME280;68213;40.528;44.712;2023-06-05T04:27:30;80535.91;;;14.60;61.56
62680;BME280;68213;40.528;44.712;2023-06-05T04:28:31;80523.03;;;14.69;61.53
62680;BME280;68213;40.528;44.712;2023-06-05T04:29:31;80517.75;;;14.53;62.14
62680;BME280;68213;40.528;44.712;2023-06-05T04:30:32;80524.81;;;14.64;64.08
62680;BME280;68213;40.528;44.712;2023-06-05T04:31:36;80525.06;;;14.70;62.89
62680;BME280;68213;40.528;44.712;2023-06-05T04:32:41;80522.66;;;14.77;62.38
62680;BME280;68213;40.528;44.712;2023-06-05T04:33:42;80524.88;;;14.82;62.21
62680;BME280;68213;40.528;44.712;2023-06-05T04:34:42;80525.09;;;14.88;61.00
62680;BME280;68213;40.528;44.712;2023-06-05T04:35:43;80524.66;;;14.94;61.41
62680;BME280;68213;40.528;44.712;2023-06-05T04:36:44;80521.72;;;15.04;60.80
62680;BME280;68213;40.528;44.712;2023-06-05T04:37:45;80532.03;;;15.14;61.48
62680;BME280;68213;40.528;44.712;2023-06-05T04:38:46;80516.81;;;15.14;60.72
62680;BME280;68213;40.528;44.712;2023-06-05T04:39:47;80528.47;;;15.25;60.68
62680;BME280;68213;40.528;44.712;2023-06-05T04:40:48;80531.72;;;15.23;59.16
62680;BME280;68213;40.528;44.712;2023-06-05T04:41:48;80532.56;;;15.28;59.66
62680;BME280;68213;40.528;44.712;2023-06-05T04:42:49;80536.13;;;15.35;59.42
62680;BME280;68213;40.528;44.712;2023-06-05T04:43:52;80532.34;;;15.40;59.41
62680;BME280;68213;40.528;44.712;2023-06-05T04:44:58;80537.56;;;15.38;58.19
62680;BME280;68213;40.528;44.712;2023-06-05T04:46:01;80531.13;;;15.43;58.02
62680;BME280;68213;40.528;44.712;2023-06-05T04:47:02;80529.78;;;15.42;56.78
62680;BME280;68213;40.528;44.712;2023-06-05T04:48:08;80536.78;;;15.35;57.06
62680;BME280;68213;40.528;44.712;2023-06-05T04:49:13;80538.03;;;15.32;56.97
62680;BME280;68213;40.528;44.712;2023-06-05T04:50:27;80535.59;;;15.38;57.06
62680;BME280;68213;40.528;44.712;2023-06-05T04:51:28;80540.38;;;15.42;57.17
62680;BME280;68213;40.528;44.712;2023-06-05T04:52:31;80535.50;;;15.54;56.66
62680;BME280;68213;40.528;44.712;2023-06-05T04:53:33;80538.47;;;15.63;57.63
62680;BME280;68213;40.528;44.712;2023-06-05T04:54:33;80529.44;;;15.70;58.37
62680;BME280;68213;40.528;44.712;2023-06-05T04:55:34;80538.97;;;15.77;58.21
62680;BME280;68213;40.528;44.712;2023-06-05T04:56:37;80533.69;;;15.77;56.96
62680;BME280;68213;40.528;44.712;2023-06-05T04:57:39;80534.06;;;15.88;55.46
62680;BME280;68213;40.528;44.712;2023-06-05T04:58:40;80531.72;;;15.96;56.34
62680;BME280;68213;40.528;44.712;2023-06-05T04:59:42;80516.56;;;15.80;56.87
62680;BME280;68213;40.528;44.712;2023-06-05T05:00:43;80529.81;;;15.98;55.97
62680;BME280;68213;40.528;44.712;2023-06-05T05:01:49;80534.50;;;16.00;55.91
62680;BME280;68213;40.528;44.712;2023-06-05T05:02:50;80526.25;;;15.92;55.23
62680;BME280;68213;40.528;44.712;2023-06-05T05:03:53;80526.66;;;15.84;55.90
62680;BME280;68213;40.528;44.712;2023-06-05T05:04:54;80528.53;;;15.81;55.88
62680;BME280;68213;40.528;44.712;2023-06-05T05:05:57;80528.69;;;15.85;56.64
62680;BME280;68213;40.528;44.712;2023-06-05T05:06:58;80529.97;;;15.84;57.11
62680;BME280;68213;40.528;44.712;2023-06-05T05:08:01;80519.59;;;15.91;55.99
62680;BME280;68213;40.528;44.712;2023-06-05T05:09:02;80525.34;;;16.03;56.04
62680;BME280;68213;40.528;44.712;2023-06-05T05:10:03;80530.69;;;16.05;55.57
62680;BME280;68213;40.528;44.712;2023-06-05T05:11:05;80528.19;;;16.09;55.31
62680;BME280;68213;40.528;44.712;2023-06-05T05:12:06;80521.63;;;16.10;55.90
62680;BME280;68213;40.528;44.712;2023-06-05T05:13:10;80521.81;;;16.16;56.91
62680;BME280;68213;40.528;44.712;2023-06-05T05:14:10;80523.41;;;16.24;59.76
62680;BME280;68213;40.528;44.712;2023-06-05T05:15:11;80523.75;;;16.34;57.57
62680;BME280;68213;40.528;44.712;2023-06-05T05:16:15;80521.69;;;16.32;57.53
62680;BME280;68213;40.528;44.712;2023-06-05T05:17:16;80519.53;;;16.27;58.02
62680;BME280;68213;40.528;44.712;2023-06-05T05:18:19;80504.22;;;16.25;58.25
62680;BME280;68213;40.528;44.712;2023-06-05T05:19:23;80517.94;;;16.40;58.60
62680;BME280;68213;40.528;44.712;2023-06-05T05:20:23;80520.00;;;16.41;58.31
62680;BME280;68213;40.528;44.712;2023-06-05T05:21:24;80515.19;;;16.36;57.74
62680;BME280;68213;40.528;44.712;2023-06-05T05:22:26;80499.66;;;16.28;58.09
62680;BME280;68213;40.528;44.712;2023-06-05T05:23:29;80513.34;;;16.40;57.32
62680;BME280;68213;40.528;44.712;2023-06-05T05:24:30;80513.81;;;16.34;57.75
62680;BME280;68213;40.528;44.712;2023-06-05T05:25:30;80510.75;;;16.42;58.97
62680;BME280;68213;40.528;44.712;2023-06-05T05:26:32;80507.78;;;16.52;58.96